createdAt,value
2023-02-09T00:01:16.776Z,101890.47
2023-02-09T00:03:43.752Z,101886.69
2023-02-09T00:06:13.248Z,101885.63
2023-02-09T00:08:39.805Z,101890.56
2023-02-09T00:11:12.425Z,101888.06
2023-02-09T00:13:43.427Z,101883.13
2023-02-09T00:16:10.032Z,101875.16
2023-02-09T00:18:37.146Z,101884.84
2023-02-09T00:21:09.078Z,101881.84
2023-02-09T00:23:39.085Z,101875.81
2023-02-09T00:26:09.422Z,101875.16
2023-02-09T00:28:36.850Z,101875.88
2023-02-09T00:31:12.227Z,101872.09
2023-02-09T00:33:39.185Z,101874.84
2023-02-09T00:36:07.502Z,101878.03
2023-02-09T00:38:36.446Z,101873.75
2023-02-09T00:41:03.660Z,101871.34
2023-02-09T00:43:30.798Z,101876.66
2023-02-09T00:45:57.225Z,101864.81
2023-02-09T00:48:23.779Z,101870.94
2023-02-09T00:50:52.270Z,101868.75
2023-02-09T00:53:19.526Z,101864.56
2023-02-09T00:55:46.313Z,101858.88
2023-02-09T00:58:13.499Z,101858.03
2023-02-09T01:00:40.430Z,101854.16
2023-02-09T01:03:07.730Z,101859.94
2023-02-09T01:05:34.500Z,101854.25
2023-02-09T01:08:01.302Z,101855.06
2023-02-09T01:10:27.675Z,101852.66
2023-02-09T01:12:54.399Z,101855.69
2023-02-09T01:15:20.895Z,101849.00
2023-02-09T01:17:47.272Z,101843.28
2023-02-09T01:20:14.157Z,101843.41
2023-02-09T01:22:40.703Z,101845.72
2023-02-09T01:25:07.876Z,101837.75
2023-02-09T01:27:35.624Z,101837.84
2023-02-09T01:30:02.060Z,101834.94
2023-02-09T01:32:28.468Z,101846.81
2023-02-09T01:34:55.071Z,101844.28
2023-02-09T01:37:21.514Z,101843.72
2023-02-09T01:39:48.029Z,101836.72
2023-02-09T01:42:19.430Z,101833.50
2023-02-09T01:44:46.007Z,101834.13
2023-02-09T01:47:17.645Z,101833.69
2023-02-09T01:49:46.042Z,101828.50
2023-02-09T01:52:15.619Z,101819.25
2023-02-09T01:54:45.540Z,101822.47
2023-02-09T01:57:25.330Z,101826.31
2023-02-09T01:59:59.022Z,101820.34
2023-02-09T02:02:25.706Z,101816.22
2023-02-09T02:04:52.787Z,101811.88
2023-02-09T02:07:27.102Z,101816.19
2023-02-09T02:09:54.277Z,101811.38
2023-02-09T02:12:20.958Z,101814.69
2023-02-09T02:14:50.711Z,101813.63
2023-02-09T02:17:53.762Z,101811.78
2023-02-09T02:20:44.176Z,101814.19
2023-02-09T02:23:33.043Z,101816.50
2023-02-09T02:26:37.124Z,101818.00
2023-02-09T02:29:13.348Z,101822.53
2023-02-09T02:31:59.224Z,101809.03
2023-02-09T02:34:34.841Z,101820.78
2023-02-09T02:37:13.915Z,101815.16
2023-02-09T02:39:52.303Z,101808.91
2023-02-09T02:42:50.356Z,101806.59
2023-02-09T02:45:41.434Z,101806.00
2023-02-09T02:48:18.296Z,101807.28
2023-02-09T02:50:49.651Z,101798.91
2023-02-09T02:53:18.182Z,101803.91
2023-02-09T02:55:45.823Z,101792.00
2023-02-09T02:58:14.321Z,101804.56
2023-02-09T03:00:45.288Z,101806.00
2023-02-09T03:03:16.141Z,101803.72
2023-02-09T03:05:43.323Z,101800.13
2023-02-09T03:08:10.068Z,101793.25
2023-02-09T03:10:39.177Z,101796.56
2023-02-09T03:13:24.519Z,101799.72
2023-02-09T03:16:20.504Z,101794.94
2023-02-09T03:19:19.034Z,101801.41
2023-02-09T03:21:49.922Z,101797.22
2023-02-09T03:24:31.534Z,101801.41
2023-02-09T03:27:03.001Z,101801.84
2023-02-09T03:29:30.418Z,101800.38
2023-02-09T03:32:01.073Z,101800.38
2023-02-09T03:34:27.829Z,101791.38
2023-02-09T03:36:55.480Z,101791.13
2023-02-09T03:39:22.237Z,101793.69
2023-02-09T03:41:48.998Z,101787.19
2023-02-09T03:44:27.779Z,101787.13
2023-02-09T03:46:56.592Z,101786.75
2023-02-09T03:49:24.122Z,101784.84
2023-02-09T03:51:50.582Z,101790.53
2023-02-09T03:54:16.961Z,101782.13
2023-02-09T03:56:43.381Z,101785.09
2023-02-09T03:59:09.866Z,101787.00
2023-02-09T04:01:36.286Z,101787.00
2023-02-09T04:04:03.881Z,101783.84
2023-02-09T04:06:31.775Z,101778.38
2023-02-09T04:09:02.136Z,101769.59
2023-02-09T04:11:28.489Z,101774.41
2023-02-09T04:13:55.158Z,101775.47
2023-02-09T04:16:21.614Z,101772.53
2023-02-09T04:18:49.464Z,101777.56
2023-02-09T04:21:15.876Z,101766.25
2023-02-09T04:23:42.432Z,101763.09
2023-02-09T04:26:08.841Z,101767.50
2023-02-09T04:28:35.422Z,101769.81
2023-02-09T04:31:02.106Z,101771.69
2023-02-09T04:33:29.223Z,101765.84
2023-02-09T04:35:55.684Z,101759.78
2023-02-09T04:38:22.638Z,101758.34
2023-02-09T04:40:50.629Z,101758.56
2023-02-09T04:43:17.474Z,101765.44
2023-02-09T04:45:44.195Z,101759.16
2023-02-09T04:48:13.586Z,101758.31
2023-02-09T04:50:40.149Z,101762.06
2023-02-09T04:53:06.525Z,101757.06
2023-02-09T04:55:33.453Z,101758.94
2023-02-09T04:58:18.537Z,101754.34
2023-02-09T05:00:46.366Z,101751.00
2023-02-09T05:03:12.895Z,101740.06
2023-02-09T05:05:40.657Z,101745.72
2023-02-09T05:08:08.004Z,101748.84
2023-02-09T05:10:35.129Z,101747.84
2023-02-09T05:13:01.700Z,101748.00
2023-02-09T05:15:28.824Z,101741.53
2023-02-09T05:17:55.507Z,101742.78
2023-02-09T05:20:22.271Z,101746.53
2023-02-09T05:22:50.134Z,101740.91
2023-02-09T05:25:17.101Z,101739.69
2023-02-09T05:27:59.074Z,101734.47
2023-02-09T05:30:26.649Z,101733.63
2023-02-09T05:32:55.424Z,101734.06
2023-02-09T05:35:24.127Z,101739.28
2023-02-09T05:37:50.579Z,101737.19
2023-02-09T05:40:17.601Z,101732.38
2023-02-09T05:42:44.204Z,101738.66
2023-02-09T05:45:11.133Z,101739.69
2023-02-09T05:47:37.796Z,101730.03
2023-02-09T05:50:04.835Z,101731.03
2023-02-09T05:52:31.253Z,101745.66
2023-02-09T05:54:57.753Z,101741.44
2023-02-09T05:57:24.384Z,101745.16
2023-02-09T05:59:50.785Z,101739.50
2023-02-09T06:02:17.301Z,101744.72
2023-02-09T06:04:43.795Z,101738.03
2023-02-09T06:07:12.090Z,101735.53
2023-02-09T06:09:39.034Z,101737.38
2023-02-09T06:12:05.595Z,101736.75
2023-02-09T06:14:31.993Z,101740.91
2023-02-09T06:16:58.385Z,101747.13
2023-02-09T06:19:25.305Z,101750.03
2023-02-09T06:21:51.974Z,101759.25
2023-02-09T06:24:18.534Z,101755.41
2023-02-09T06:26:44.985Z,101751.63
2023-02-09T06:29:15.652Z,101754.75
2023-02-09T06:31:42.240Z,101760.19
2023-02-09T06:34:09.409Z,101753.31
2023-02-09T06:36:35.835Z,101752.06
2023-02-09T06:39:02.353Z,101757.69
2023-02-09T06:41:28.680Z,101760.13
2023-02-09T06:43:55.079Z,101760.13
2023-02-09T06:46:21.624Z,101767.84
2023-02-09T06:48:48.063Z,101763.72
2023-02-09T06:51:16.175Z,101758.44
2023-02-09T06:53:43.243Z,101757.47
2023-02-09T06:56:11.172Z,101753.47
2023-02-09T06:58:38.050Z,101750.56
2023-02-09T07:01:05.726Z,101753.91
2023-02-09T07:03:32.982Z,101747.03
2023-02-09T07:06:07.279Z,101745.56
2023-02-09T07:08:34.618Z,101745.81
2023-02-09T07:11:02.517Z,101745.47
2023-02-09T07:13:29.794Z,101744.00
2023-02-09T07:15:59.828Z,101739.19
2023-02-09T07:18:26.853Z,101744.72
2023-02-09T07:21:01.578Z,101749.72
2023-02-09T07:23:29.732Z,101744.03
2023-02-09T07:25:56.417Z,101745.63
2023-02-09T07:28:23.172Z,101745.50
2023-02-09T07:30:51.948Z,101749.38
2023-02-09T07:33:19.398Z,101748.47
2023-02-09T07:35:46.191Z,101745.03
2023-02-09T07:38:13.099Z,101754.66
2023-02-09T07:40:45.798Z,101747.31
2023-02-09T07:43:13.467Z,101755.78
2023-02-09T07:45:40.574Z,101748.13
2023-02-09T07:48:11.791Z,101741.53
2023-02-09T07:50:38.283Z,101741.94
2023-02-09T07:53:04.755Z,101739.63
2023-02-09T07:55:31.171Z,101736.84
2023-02-09T07:57:57.572Z,101753.53
2023-02-09T08:00:25.561Z,101751.44
2023-02-09T08:02:52.095Z,101737.41
2023-02-09T08:05:27.054Z,101739.56
2023-02-09T08:07:53.558Z,101752.38
2023-02-09T08:10:19.940Z,101745.84
2023-02-09T08:13:16.072Z,101749.34
2023-02-09T08:15:45.609Z,101757.66
2023-02-09T08:18:28.583Z,101750.25
2023-02-09T08:20:55.057Z,101753.84
2023-02-09T08:23:30.479Z,101756.03
2023-02-09T08:25:58.395Z,101756.63
2023-02-09T08:28:38.309Z,101754.72
2023-02-09T08:31:10.723Z,101761.38
2023-02-09T08:33:37.282Z,101755.03
2023-02-09T08:36:04.123Z,101760.47
2023-02-09T08:38:30.502Z,101756.13
2023-02-09T08:40:56.914Z,101751.19
2023-02-09T08:43:23.306Z,101759.19
2023-02-09T08:45:51.284Z,101757.00
2023-02-09T08:48:17.860Z,101756.03
2023-02-09T08:50:44.260Z,101754.75
2023-02-09T08:53:10.727Z,101755.91
2023-02-09T08:55:38.142Z,101757.44
2023-02-09T08:58:04.983Z,101750.84
2023-02-09T09:00:31.415Z,101749.66
2023-02-09T09:02:57.986Z,101744.06
2023-02-09T09:05:24.576Z,101747.38
2023-02-09T09:07:51.235Z,101733.34
2023-02-09T09:10:17.940Z,101740.19
2023-02-09T09:12:45.106Z,101749.41
2023-02-09T09:15:11.445Z,101748.22
2023-02-09T09:17:37.865Z,101751.22
2023-02-09T09:20:04.548Z,101756.63
2023-02-09T09:22:30.985Z,101752.88
2023-02-09T09:24:57.350Z,101765.75
2023-02-09T09:27:26.057Z,101749.88
2023-02-09T09:29:53.301Z,101754.00
2023-02-09T09:32:24.964Z,101754.97
2023-02-09T09:34:55.722Z,101751.88
2023-02-09T09:37:22.529Z,101758.00
2023-02-09T09:39:49.103Z,101764.69
2023-02-09T09:42:33.329Z,101757.84
2023-02-09T09:44:59.738Z,101747.06
2023-02-09T09:47:39.720Z,101750.16
2023-02-09T09:50:23.398Z,101740.78
2023-02-09T09:53:01.379Z,101754.88
2023-02-09T09:55:29.947Z,101762.31
2023-02-09T09:57:58.830Z,101758.28
2023-02-09T10:00:28.156Z,101758.44
2023-02-09T10:02:54.793Z,101751.19
2023-02-09T10:05:26.892Z,101744.84
2023-02-09T10:08:07.128Z,101724.28
2023-02-09T10:10:56.610Z,101721.31
2023-02-09T10:13:31.100Z,101726.28
2023-02-09T10:15:58.345Z,101734.31
2023-02-09T10:18:25.625Z,101736.91
2023-02-09T10:20:54.881Z,101745.66
2023-02-09T10:23:27.741Z,101740.41
2023-02-09T10:26:01.201Z,101736.47
2023-02-09T10:28:31.580Z,101739.50
2023-02-09T10:31:01.107Z,101733.47
2023-02-09T10:33:29.844Z,101723.41
2023-02-09T10:35:58.555Z,101731.56
2023-02-09T10:38:28.317Z,101721.59
2023-02-09T10:40:54.891Z,101711.84
2023-02-09T10:43:28.566Z,101706.00
2023-02-09T10:45:56.902Z,101703.31
2023-02-09T10:48:25.110Z,101707.13
2023-02-09T10:51:01.051Z,101707.09
2023-02-09T10:53:35.567Z,101696.31
2023-02-09T10:56:17.471Z,101698.03
2023-02-09T10:58:53.111Z,101690.53
2023-02-09T11:01:26.369Z,101687.22
2023-02-09T11:04:18.807Z,101690.88
2023-02-09T11:06:59.215Z,101692.44
2023-02-09T11:09:34.778Z,101681.22
2023-02-09T11:12:01.643Z,101674.03
2023-02-09T11:14:28.599Z,101667.66
2023-02-09T11:17:13.139Z,101670.63
2023-02-09T11:19:50.682Z,101658.44
2023-02-09T11:22:54.929Z,101663.88
2023-02-09T11:25:28.017Z,101657.94
2023-02-09T11:28:22.011Z,101660.91
2023-02-09T11:31:00.250Z,101653.09
2023-02-09T11:34:04.952Z,101644.41
2023-02-09T11:36:41.153Z,101636.63
2023-02-09T11:39:12.294Z,101626.34
2023-02-09T11:42:03.977Z,101625.66
2023-02-09T11:44:45.704Z,101617.19
2023-02-09T11:47:19.740Z,101623.41
2023-02-09T11:49:51.087Z,101618.41
2023-02-09T11:52:27.257Z,101600.94
2023-02-09T11:54:57.153Z,101598.72
2023-02-09T11:57:48.060Z,101592.44
2023-02-09T12:00:19.423Z,101586.97
2023-02-09T12:03:08.689Z,101588.97
2023-02-09T12:05:35.536Z,101575.84
2023-02-09T12:08:27.004Z,101582.72
2023-02-09T12:11:10.919Z,101561.41
2023-02-09T12:13:40.463Z,101562.72
2023-02-09T12:16:13.674Z,101559.44
2023-02-09T12:18:42.241Z,101554.03
2023-02-09T12:21:08.977Z,101559.25
2023-02-09T12:23:36.469Z,101567.19
2023-02-09T12:26:43.659Z,101555.41
2023-02-09T12:29:35.234Z,101548.25
2023-02-09T12:32:01.864Z,101538.75
2023-02-09T12:34:51.359Z,101529.69
2023-02-09T12:37:27.263Z,101544.31
2023-02-09T12:40:06.930Z,101530.44
2023-02-09T12:43:05.817Z,101511.94
2023-02-09T12:45:35.875Z,101506.03
2023-02-09T12:48:15.152Z,101491.09
2023-02-09T12:50:51.213Z,101484.25
2023-02-09T12:53:23.960Z,101486.50
2023-02-09T12:56:12.580Z,101497.78
2023-02-09T12:58:45.385Z,101504.19
2023-02-09T13:01:13.948Z,101502.66
2023-02-09T13:03:56.786Z,101487.94
2023-02-09T13:06:49.001Z,101494.16
2023-02-09T13:09:26.261Z,101488.81
2023-02-09T13:12:11.133Z,101489.84
2023-02-09T13:14:38.393Z,101480.22
2023-02-09T13:17:23.628Z,101479.53
2023-02-09T13:19:55.983Z,101472.72
2023-02-09T13:22:47.618Z,101468.88
2023-02-09T13:25:40.850Z,101456.31
2023-02-09T13:28:16.644Z,101456.06
2023-02-09T13:30:43.194Z,101445.22
2023-02-09T13:33:31.493Z,101449.97
2023-02-09T13:36:01.121Z,101468.44
2023-02-09T13:38:31.406Z,101462.16
2023-02-09T13:40:58.421Z,101462.28
2023-02-09T13:43:32.592Z,101465.72
2023-02-09T13:46:00.509Z,101465.94
2023-02-09T13:48:33.151Z,101471.66
2023-02-09T13:51:02.657Z,101476.22
2023-02-09T13:53:30.345Z,101480.59
2023-02-09T13:56:00.020Z,101482.72
2023-02-09T13:58:33.138Z,101483.41
2023-02-09T14:01:03.611Z,101479.81
2023-02-09T14:03:32.836Z,101487.84
2023-02-09T14:06:31.528Z,101492.06
2023-02-09T14:08:58.732Z,101494.66
2023-02-09T14:11:45.191Z,101479.16
2023-02-09T14:14:54.534Z,101486.00
2023-02-09T14:17:28.938Z,101489.28
2023-02-09T14:20:00.869Z,101492.28
2023-02-09T14:22:38.910Z,101491.97
2023-02-09T14:25:15.692Z,101505.88
2023-02-09T14:27:46.844Z,101510.88
2023-02-09T14:30:21.061Z,101509.91
2023-02-09T14:32:52.111Z,101513.19
2023-02-09T14:35:30.435Z,101500.75
2023-02-09T14:38:01.587Z,101499.16
2023-02-09T14:40:28.167Z,101495.75
2023-02-09T14:43:02.281Z,101494.41
2023-02-09T14:45:37.735Z,101506.63
2023-02-09T14:48:17.748Z,101498.06
2023-02-09T14:50:45.157Z,101504.44
2023-02-09T14:53:15.264Z,101501.13
2023-02-09T14:55:42.658Z,101495.31
2023-02-09T14:58:19.454Z,101496.69
2023-02-09T15:00:47.671Z,101495.88
2023-02-09T15:03:14.478Z,101503.88
2023-02-09T15:05:41.781Z,101493.09
2023-02-09T15:08:12.584Z,101488.66
2023-02-09T15:10:43.608Z,101489.50
2023-02-09T15:13:12.550Z,101486.19
2023-02-09T15:15:40.005Z,101475.13
2023-02-09T15:18:07.244Z,101483.41
2023-02-09T15:20:33.883Z,101480.09
2023-02-09T15:23:00.972Z,101480.03
2023-02-09T15:25:29.260Z,101479.94
2023-02-09T15:27:58.412Z,101485.09
2023-02-09T15:30:30.878Z,101490.91
2023-02-09T15:32:57.422Z,101498.09
2023-02-09T15:35:26.043Z,101497.19
2023-02-09T15:37:55.115Z,101490.25
2023-02-09T15:40:47.913Z,101496.53
2023-02-09T15:43:35.938Z,101501.09
2023-02-09T15:46:03.740Z,101496.88
2023-02-09T15:48:31.936Z,101497.97
2023-02-09T15:50:59.062Z,101505.28
2023-02-09T15:53:26.888Z,101502.97
2023-02-09T15:55:54.477Z,101510.63
2023-02-09T15:58:35.444Z,101509.16
2023-02-09T16:01:02.768Z,101499.78
2023-02-09T16:03:31.834Z,101508.81
2023-02-09T16:06:00.909Z,101518.63
2023-02-09T16:08:33.291Z,101523.44
2023-02-09T16:11:00.988Z,101521.03
2023-02-09T16:13:27.686Z,101521.94
2023-02-09T16:15:56.857Z,101530.75
2023-02-09T16:18:24.920Z,101512.56
2023-02-09T16:20:52.156Z,101508.50
2023-02-09T16:23:21.773Z,101507.91
2023-02-09T16:25:52.744Z,101534.06
2023-02-09T16:28:20.827Z,101523.66
2023-02-09T16:30:53.365Z,101529.81
2023-02-09T16:33:20.840Z,101530.34
2023-02-09T16:35:53.950Z,101531.50
2023-02-09T16:38:22.347Z,101527.06
2023-02-09T16:40:49.435Z,101526.22
2023-02-09T16:43:16.446Z,101522.75
2023-02-09T16:45:53.937Z,101528.88
2023-02-09T16:48:29.450Z,101538.19
2023-02-09T16:50:56.669Z,101543.84
2023-02-09T16:53:35.630Z,101539.16
2023-02-09T16:56:09.996Z,101556.44
2023-02-09T16:58:37.474Z,101556.09
2023-02-09T17:01:04.323Z,101562.50
2023-02-09T17:03:38.907Z,101560.25
2023-02-09T17:06:06.355Z,101564.84
2023-02-09T17:08:38.040Z,101564.94
2023-02-09T17:11:05.245Z,101569.25
2023-02-09T17:13:32.085Z,101560.00
2023-02-09T17:15:59.647Z,101566.88
2023-02-09T17:18:29.092Z,101578.91
2023-02-09T17:20:58.270Z,101582.63
2023-02-09T17:23:26.912Z,101583.31
2023-02-09T17:25:55.201Z,101588.34
2023-02-09T17:28:23.179Z,101582.75
2023-02-09T17:30:50.246Z,101579.97
2023-02-09T17:33:23.832Z,101576.91
2023-02-09T17:38:41.795Z,101593.56
2023-02-09T17:41:15.091Z,101604.16
2023-02-09T17:43:41.676Z,101609.63
2023-02-09T17:46:10.675Z,101600.63
2023-02-09T17:48:37.173Z,101612.28
2023-02-09T17:51:06.839Z,101612.03
2023-02-09T17:53:34.566Z,101615.81
2023-02-09T17:56:02.665Z,101610.22
2023-02-09T17:58:29.405Z,101618.69
2023-02-09T18:00:56.450Z,101614.97
2023-02-09T18:03:24.903Z,101612.00
2023-02-09T18:05:58.633Z,101597.38
2023-02-09T18:08:27.148Z,101599.19
2023-02-09T18:10:55.225Z,101600.38
2023-02-09T18:13:23.516Z,101589.41
2023-02-09T18:15:51.854Z,101601.81
2023-02-09T18:18:18.416Z,101598.25
2023-02-09T18:20:44.752Z,101595.34
2023-02-09T18:23:15.202Z,101601.44
2023-02-09T18:25:41.794Z,101593.44
2023-02-09T18:28:08.565Z,101592.59
2023-02-09T18:30:38.177Z,101589.41
2023-02-09T18:33:05.917Z,101589.06
2023-02-09T18:35:44.976Z,101587.53
2023-02-09T18:38:14.251Z,101585.63
2023-02-09T18:40:40.636Z,101593.69
2023-02-09T18:43:08.682Z,101585.72
2023-02-09T18:45:35.384Z,101599.50
2023-02-09T18:48:01.995Z,101594.03
2023-02-09T18:50:31.205Z,101591.69
2023-02-09T18:53:00.244Z,101577.66
2023-02-09T18:55:31.682Z,101592.50
2023-02-09T18:58:00.722Z,101579.28
2023-02-09T19:00:27.622Z,101585.31
2023-02-09T19:02:57.638Z,101585.34
2023-02-09T19:05:26.427Z,101584.75
2023-02-09T19:07:53.257Z,101571.44
2023-02-09T19:10:20.429Z,101578.38
2023-02-09T19:12:47.496Z,101585.03
2023-02-09T19:15:14.974Z,101588.47
2023-02-09T19:17:41.930Z,101593.34
2023-02-09T19:20:20.415Z,101605.47
2023-02-09T19:22:53.257Z,101607.13
2023-02-09T19:25:21.243Z,101601.41
2023-02-09T19:27:47.882Z,101604.09
2023-02-09T19:30:24.777Z,101597.06
2023-02-09T19:32:53.957Z,101597.13
2023-02-09T19:35:22.521Z,101601.72
2023-02-09T19:37:56.989Z,101604.19
2023-02-09T19:40:39.066Z,101607.53
2023-02-09T19:43:06.302Z,101615.22
2023-02-09T19:45:37.765Z,101610.00
2023-02-09T19:48:06.327Z,101608.28
2023-02-09T19:50:33.721Z,101608.28
2023-02-09T19:53:00.310Z,101613.16
2023-02-09T19:55:26.986Z,101618.63
2023-02-09T19:57:53.809Z,101610.41
2023-02-09T20:00:22.300Z,101606.63
2023-02-09T20:02:49.214Z,101612.91
2023-02-09T20:05:16.382Z,101615.28
2023-02-09T20:07:48.768Z,101610.66
2023-02-09T20:10:15.440Z,101613.28
2023-02-09T20:15:11.635Z,101605.13
2023-02-09T20:17:38.287Z,101602.53
2023-02-09T20:20:05.826Z,101600.13
2023-02-09T20:22:34.733Z,101605.25
2023-02-09T20:25:01.693Z,101604.78
2023-02-09T20:27:28.629Z,101596.84
2023-02-09T20:30:01.092Z,101598.19
2023-02-09T20:32:28.984Z,101600.59
2023-02-09T20:34:55.892Z,101601.59
2023-02-09T20:37:23.504Z,101601.75
2023-02-09T20:39:49.932Z,101604.91
2023-02-09T20:42:36.812Z,101605.72
2023-02-09T20:45:22.806Z,101601.59
2023-02-09T20:47:49.433Z,101592.19
2023-02-09T20:50:18.013Z,101587.63
2023-02-09T20:52:45.673Z,101596.47
2023-02-09T20:55:13.149Z,101591.19
2023-02-09T20:57:40.087Z,101589.41
2023-02-09T21:00:10.180Z,101595.53
2023-02-09T21:02:37.729Z,101596.91
2023-02-09T21:05:05.356Z,101583.00
2023-02-09T21:07:33.364Z,101572.91
2023-02-09T21:09:59.837Z,101575.16
2023-02-09T21:12:26.679Z,101589.31
2023-02-09T21:14:54.289Z,101588.13
2023-02-09T21:17:21.302Z,101580.97
2023-02-09T21:19:47.750Z,101590.81
2023-02-09T21:22:15.262Z,101597.91
2023-02-09T21:24:42.495Z,101595.16
2023-02-09T21:27:09.471Z,101602.38
2023-02-09T21:29:36.462Z,101615.09
2023-02-09T21:32:04.987Z,101612.81
2023-02-09T21:34:37.016Z,101613.28
2023-02-09T21:37:03.594Z,101608.88
2023-02-09T21:39:31.513Z,101630.00
2023-02-09T21:42:16.589Z,101637.88
2023-02-09T21:44:43.214Z,101632.88
2023-02-09T21:47:10.499Z,101639.69
2023-02-09T21:49:36.856Z,101639.69
2023-02-09T21:52:03.429Z,101633.56
2023-02-09T21:54:33.971Z,101632.31
2023-02-09T21:57:01.483Z,101637.22
2023-02-09T21:59:29.114Z,101641.22
2023-02-09T22:01:55.651Z,101635.47
2023-02-09T22:04:22.436Z,101637.72
2023-02-09T22:06:49.244Z,101639.16
2023-02-09T22:09:15.976Z,101638.81
2023-02-09T22:11:42.708Z,101643.97
2023-02-09T22:14:09.195Z,101649.31
2023-02-09T22:16:35.749Z,101650.19
2023-02-09T22:19:02.208Z,101653.97
2023-02-09T22:21:28.620Z,101659.69
2023-02-09T22:23:55.286Z,101650.19
2023-02-09T22:26:22.172Z,101649.56
2023-02-09T22:28:49.197Z,101652.88
2023-02-09T22:31:17.718Z,101658.84
2023-02-09T22:33:44.405Z,101654.69
2023-02-09T22:36:18.695Z,101655.84
2023-02-09T22:38:45.283Z,101652.34
2023-02-09T22:41:23.847Z,101660.69
2023-02-09T22:43:51.943Z,101668.53
2023-02-09T22:46:19.815Z,101671.91
2023-02-09T22:48:55.894Z,101667.34
2023-02-09T22:51:24.051Z,101663.69
2023-02-09T22:53:50.806Z,101665.75
2023-02-09T22:56:17.465Z,101665.50
2023-02-09T22:58:44.215Z,101654.66
2023-02-09T23:01:11.012Z,101666.25
2023-02-09T23:03:38.345Z,101662.31
2023-02-09T23:06:07.427Z,101664.28
2023-02-09T23:08:34.258Z,101664.56
2023-02-09T23:11:06.035Z,101656.25
2023-02-09T23:13:33.847Z,101654.19
2023-02-09T23:16:12.433Z,101664.50
2023-02-09T23:18:39.744Z,101662.69
2023-02-09T23:21:07.723Z,101671.16
2023-02-09T23:23:35.048Z,101668.59
2023-02-09T23:26:01.627Z,101649.50
2023-02-09T23:28:28.152Z,101651.03
2023-02-09T23:30:54.915Z,101648.66
2023-02-09T23:33:22.090Z,101648.06
2023-02-09T23:35:48.726Z,101650.03
2023-02-09T23:38:15.697Z,101660.19
2023-02-09T23:40:42.147Z,101664.75
2023-02-09T23:43:08.871Z,101657.53
2023-02-09T23:45:35.320Z,101656.78
2023-02-09T23:48:02.133Z,101671.03
2023-02-09T23:50:28.625Z,101678.63
2023-02-09T23:52:55.184Z,101675.34
2023-02-09T23:55:22.884Z,101671.78
2023-02-09T23:57:49.338Z,101669.41
